Latest Weather Observations for Heron Island

IDQ60801

Issued at 7:32 am EST Monday 3 October 2022 (issued every 10 minutes, with the page automatically refreshed every 10 minutes)

About weather observations | Map of weather stations | Latest weather observations for QLD | Other Formats
Station Details ID: 039122 Name: HERON ISLAND RES STN Lat: -23.44 Lon: 151.91 Height: 3.3 m
Data from the previous 72 hours. | See also: Recent months at Heron Island
Date/Time
EST
Temp
°C
App
Temp
°C
Dew
Point
°C
Rel
Hum
%
Delta-T
°C
Wind Press
QNH
hPa
Press
MSL
hPa
Rain since
9am
mm
Dir  Spd
km/h
Gust
km/h
Spd
kts
Gust
kts
03/07:30am - - - - - SSE 26 37 14 20 - - -
03/07:00am - - - - - SSE 26 41 14 22 - - -
03/06:30am - - - - - SE 32 41 17 22 - - -
03/06:00am - - - - - SSE 28 37 15 20 - - -
03/05:30am - - - - - SSE 26 37 14 20 - - -
03/05:00am - - - - - SE 30 37 16 20 - - -
03/04:30am - - - - - SSE 24 35 13 19 - - -
03/04:00am - - - - - SSE 22 33 12 18 - - -
03/03:30am - - - - - SE 26 35 14 19 - - -
03/03:00am - - - - - SE 30 37 16 20 - - -
03/02:30am - - - - - SE 28 37 15 20 - - -
03/02:00am - - - - - SE 24 33 13 18 - - -
03/01:30am - - - - - SSE 20 30 11 16 - - -
03/01:00am - - - - - SSE 19 30 10 16 - - -
03/12:30am - - - - - SSE 22 30 12 16 - - -
03/12:00am - - - - - SE 24 32 13 17 - - -
 
Date/Time
EST
Temp
°C
App
Temp
°C
Dew
Point
°C
Rel
Hum
%
Delta-T
°C
Wind Press
QNH
hPa
Press
MSL
hPa
Rain since
9am
mm
Dir  Spd
km/h
Gust
km/h
Spd
kts
Gust
kts
02/11:30pm - - - - - SE 24 35 13 19 - - -
02/11:00pm - - - - - SSE 22 32 12 17 - - -
02/10:30pm - - - - - SSE 22 30 12 16 - - -
02/10:00pm - - - - - SE 28 33 15 18 - - -
02/09:30pm - - - - - SE 30 37 16 20 - - -
02/09:00pm - - - - - SSE 26 35 14 19 - - -
02/08:30pm - - - - - SSE 22 33 12 18 - - -
02/08:00pm - - - - - SE 26 32 14 17 - - -
02/07:30pm - - - - - SE 20 28 11 15 - - -
02/07:00pm - - - - - ESE 19 28 10 15 - - -
02/06:30pm - - - - - SE 30 39 16 21 - - -
02/06:00pm - - - - - SE 28 37 15 20 - - -
02/05:30pm - - - - - SE 28 37 15 20 - - -
02/05:00pm - - - - - ESE 20 32 11 17 - - -
02/04:30pm - - - - - SE 22 32 12 17 - - -
02/04:00pm - - - - - ESE 20 30 11 16 - - -
02/03:30pm - - - - - ESE 19 28 10 15 - - -
02/03:00pm - - - - - ESE 17 28 9 15 - - -
02/02:30pm - - - - - SE 20 30 11 16 - - -
02/02:00pm - - - - - SSE 19 28 10 15 - - -
02/01:30pm - - - - - SSE 20 30 11 16 - - -
02/01:00pm - - - - - SSE 19 28 10 15 - - -
02/12:30pm - - - - - SSE 19 30 10 16 - - -
02/12:00pm - - - - - SSE 17 26 9 14 - - -
02/11:30am - - - - - SSE 17 28 9 15 - - -
02/11:00am - - - - - SSE 17 26 9 14 - - -
02/10:30am - - - - - SSE 17 24 9 13 - - -
02/10:00am - - - - - SSE 15 24 8 13 - - -
02/09:30am - - - - - SSE 17 26 9 14 - - -
02/09:00am - - - - - SE 22 28 12 15 - - -
02/08:30am - - - - - SE 22 28 12 15 - - -
02/08:00am - - - - - SE 26 32 14 17 - - -
02/07:30am - - - - - SE 22 30 12 16 - - -
02/07:00am - - - - - SE 20 30 11 16 - - -
02/06:30am - - - - - SSE 20 28 11 15 - - -
02/06:00am - - - - - SSE 20 30 11 16 - - -
02/05:30am - - - - - SSE 19 26 10 14 - - -
02/05:00am - - - - - SE 22 32 12 17 - - -
02/04:30am - - - - - SSE 20 32 11 17 - - -
02/04:00am - - - - - SSE 13 17 7 9 - - -
02/03:30am - - - - - SSE 11 15 6 8 - - -
02/03:00am - - - - - SE 13 17 7 9 - - -
02/02:30am - - - - - ESE 9 11 5 6 - - -
02/02:00am - - - - - SE 9 13 5 7 - - -
02/01:30am - - - - - ESE 9 11 5 6 - - -
02/01:00am - - - - - CALM 0 0 0 0 - - -
02/12:30am - - - - - CALM 0 0 0 0 - - -
02/12:00am - - - - - ENE 4 7 2 4 - - -
 
Date/Time
EST
Temp
°C
App
Temp
°C
Dew
Point
°C
Rel
Hum
%
Delta-T
°C
Wind Press
QNH
hPa
Press
MSL
hPa
Rain since
9am
mm
Dir  Spd
km/h
Gust
km/h
Spd
kts
Gust
kts
01/11:30pm - - - - - NE 7 11 4 6 - - -
01/11:00pm - - - - - NE 7 9 4 5 - - -
01/10:30pm - - - - - ENE 6 11 3 6 - - -
01/10:00pm - - - - - NE 7 11 4 6 - - -
01/09:30pm - - - - - NE 11 13 6 7 - - -
01/09:00pm - - - - - NE 9 13 5 7 - - -
01/08:30pm - - - - - NE 9 15 5 8 - - -
01/08:00pm - - - - - ENE 13 17 7 9 - - -
01/07:30pm - - - - - ENE 13 17 7 9 - - -
01/07:00pm - - - - - NE 11 15 6 8 - - -
01/06:30pm - - - - - NE 13 15 7 8 - - -
01/06:00pm - - - - - NE 13 17 7 9 - - -
01/05:30pm - - - - - NE 13 17 7 9 - - -
01/05:00pm - - - - - NE 13 19 7 10 - - -
01/04:30pm - - - - - ENE 15 19 8 10 - - -
01/04:00pm - - - - - ENE 15 19 8 10 - - -
01/03:30pm - - - - - ENE 13 17 7 9 - - -
01/03:00pm - - - - - ESE 13 19 7 10 - - -
01/02:30pm - - - - - SE 15 20 8 11 - - -
01/02:00pm - - - - - SE 15 19 8 10 - - -
01/01:30pm - - - - - SSE 13 20 7 11 - - -
01/01:00pm - - - - - SE 17 26 9 14 - - -
01/12:30pm - - - - - SSE 17 26 9 14 - - -
01/12:00pm - - - - - SSE 19 26 10 14 - - -
01/11:30am - - - - - SSE 19 28 10 15 - - -
01/11:00am - - - - - SSE 17 26 9 14 - - -
01/10:30am - - - - - SE 19 26 10 14 - - -
01/10:00am - - - - - SSE 19 28 10 15 - - -
01/09:30am - - - - - SSE 20 30 11 16 - - -
01/09:00am - - - - - SSE 19 28 10 15 - - -
01/08:30am - - - - - SSE 19 28 10 15 - - -
01/08:00am - - - - - SSE 20 30 11 16 - - -
01/07:30am - - - - - SSE 15 19 8 10 - - -
01/07:00am - - - - - SSE 13 19 7 10 - - -
01/06:30am - - - - - S 9 11 5 6 - - -
01/06:00am - - - - - S 6 7 3 4 - - -
01/05:30am - - - - - CALM 0 6 0 3 - - -
01/05:00am - - - - - CALM 0 6 0 3 - - -
01/04:30am - - - - - ESE 6 6 3 3 - - -
01/04:00am - - - - - CALM 0 0 0 0 - - -
01/03:30am - - - - - ESE 7 7 4 4 - - -
01/03:00am - - - - - E 6 7 3 4 - - -
01/02:30am - - - - - E 7 7 4 4 - - -
01/02:00am - - - - - CALM 0 0 0 0 - - -
01/01:30am - - - - - NE 7 9 4 5 - - -
01/01:00am - - - - - NE 9 13 5 7 - - -
01/12:30am - - - - - NNE 13 17 7 9 - - -
01/12:00am - - - - - NE 11 17 6 9 - - -
 
Date/Time
EST
Temp
°C
App
Temp
°C
Dew
Point
°C
Rel
Hum
%
Delta-T
°C
Wind Press
QNH
hPa
Press
MSL
hPa
Rain since
9am
mm
Dir  Spd
km/h
Gust
km/h
Spd
kts
Gust
kts
30/11:30pm - - - - - ENE 11 15 6 8 - - -
30/11:00pm - - - - - ENE 13 17 7 9 - - -
30/10:30pm - - - - - E 13 19 7 10 - - -
30/10:00pm - - - - - E 11 15 6 8 - - -
30/09:30pm - - - - - ENE 9 13 5 7 - - -
30/09:00pm - - - - - ENE 9 13 5 7 - - -
30/08:30pm - - - - - ENE 11 15 6 8 - - -
30/08:00pm - - - - - ENE 11 15 6 8 - - -
30/07:30pm - - - - - ENE 11 15 6 8 - - -
30/07:00pm - - - - - NE 11 15 6 8 - - -
30/06:30pm - - - - - NE 11 17 6 9 - - -
30/06:00pm - - - - - NE 13 17 7 9 - - -
30/05:30pm - - - - - ENE 11 15 6 8 - - -
30/05:00pm - - - - - ENE 13 19 7 10 - - -
30/04:30pm - - - - - ENE 9 13 5 7 - - -
30/04:00pm - - - - - E 11 15 6 8 - - -
30/03:30pm - - - - - SE 9 13 5 7 - - -
30/03:00pm - - - - - S 9 11 5 6 - - -
30/02:30pm - - - - - S 11 11 6 6 - - -
30/02:00pm - - - - - SSW 9 13 5 7 - - -
30/01:30pm - - - - - SSW 9 13 5 7 - - -
30/01:00pm - - - - - SSW 13 15 7 8 - - -
30/12:30pm - - - - - S 13 17 7 9 - - -
30/12:00pm - - - - - SSW 13 15 7 8 - - -
30/11:30am - - - - - SSW 13 19 7 10 - - -
30/11:00am - - - - - S 15 20 8 11 - - -
30/10:30am - - - - - S 17 20 9 11 - - -
30/10:00am - - - - - S 17 24 9 13 - - -
30/09:30am - - - - - S 19 28 10 15 - - -
30/09:00am - - - - - S 20 28 11 15 - - -
30/08:30am - - - - - S 26 33 14 18 - - -
30/08:00am - - - - - S 28 37 15 20 - - -

Other formats

Comma delimited format used in spreadsheet applications
http://www.bom.gov.au/fwo/IDQ60801/IDQ60801.94386.axf

JavaScript Object Notation format (JSON) in row-major order
http://www.bom.gov.au/fwo/IDQ60801/IDQ60801.94386.json

Data quality

Most of these data are generated automatically and are frequently updated. Quality checks on data are not normally performed. It is possible for incorrect values to appear. Refer to information at About Latest Weather Observations and please check the disclaimer before using these data.